createdAt,value
2019-05-01T00:00:16.062Z,9.67
2019-05-01T00:03:05.084Z,9.61
2019-05-01T00:05:35.573Z,9.60
2019-05-01T00:08:03.508Z,9.64
2019-05-01T00:10:31.789Z,9.54
2019-05-01T00:12:59.343Z,9.47
2019-05-01T00:15:30.268Z,9.41
2019-05-01T00:17:57.646Z,9.45
2019-05-01T00:20:25.012Z,9.38
2019-05-01T00:22:52.276Z,9.41
2019-05-01T00:25:19.579Z,9.44
2019-05-01T00:27:46.715Z,9.32
2019-05-01T00:30:29.314Z,9.29
2019-05-01T00:32:46.377Z,9.19
2019-05-01T00:35:13.622Z,9.25
2019-05-01T00:37:41.046Z,9.23
2019-05-01T00:40:09.030Z,9.14
2019-05-01T00:42:36.292Z,9.23
2019-05-01T00:45:03.934Z,9.12
2019-05-01T00:47:31.194Z,9.11
2019-05-01T00:49:58.454Z,9.08
2019-05-01T00:52:25.590Z,9.01
2019-05-01T00:55:12.559Z,9.13
2019-05-01T00:57:44.488Z,9.19
2019-05-01T01:00:42.538Z,9.09
2019-05-01T01:03:00.993Z,9.14
2019-05-01T01:05:28.327Z,9.01
2019-05-01T01:07:55.578Z,9.00
2019-05-01T01:10:23.123Z,9.11
2019-05-01T01:12:50.287Z,8.98
2019-05-01T01:15:17.534Z,8.99
2019-05-01T01:17:44.932Z,8.86
2019-05-01T01:20:12.738Z,8.80
2019-05-01T01:22:40.067Z,8.68
2019-05-01T01:25:08.133Z,8.64
2019-05-01T01:27:35.483Z,8.66
2019-05-01T01:30:04.622Z,8.66
2019-05-01T01:32:31.988Z,8.63
2019-05-01T01:35:00.681Z,8.68
2019-05-01T01:37:27.864Z,8.57
2019-05-01T01:39:55.664Z,8.53
2019-05-01T01:42:23.530Z,8.56
2019-05-01T01:44:57.499Z,8.57
2019-05-01T01:47:25.075Z,8.55
2019-05-01T01:49:54.093Z,8.51
2019-05-01T01:52:22.269Z,8.41
2019-05-01T01:54:49.822Z,8.39
2019-05-01T01:57:17.581Z,8.38
2019-05-01T01:59:45.248Z,8.41
2019-05-01T02:02:25.811Z,8.43
2019-05-01T02:05:14.553Z,8.40
2019-05-01T02:07:42.443Z,8.44
2019-05-01T02:10:09.938Z,8.39
2019-05-01T02:12:38.482Z,8.47
2019-05-01T02:15:06.454Z,8.42
2019-05-01T02:17:34.117Z,8.35
2019-05-01T02:20:02.061Z,8.35
2019-05-01T02:22:29.524Z,8.27
2019-05-01T02:24:56.786Z,8.27
2019-05-01T02:27:31.724Z,8.40
2019-05-01T02:30:01.605Z,8.29
2019-05-01T02:32:29.458Z,8.11
2019-05-01T02:34:58.423Z,8.11
2019-05-01T02:37:33.367Z,8.06
2019-05-01T02:40:15.820Z,8.03
2019-05-01T02:42:44.415Z,8.05
2019-05-01T02:45:11.988Z,7.99
2019-05-01T02:47:42.933Z,7.96
2019-05-01T02:50:11.235Z,8.15
2019-05-01T02:52:42.400Z,8.01
2019-05-01T02:55:20.914Z,7.86
2019-05-01T02:57:49.081Z,7.80
2019-05-01T03:00:16.864Z,7.76
2019-05-01T03:02:44.509Z,7.75
2019-05-01T03:05:12.160Z,7.69
2019-05-01T03:07:41.328Z,7.61
2019-05-01T03:10:10.037Z,7.63
2019-05-01T03:12:43.181Z,7.48
2019-05-01T03:15:11.882Z,7.44
2019-05-01T03:17:51.610Z,7.48
2019-05-01T03:20:50.666Z,7.43
2019-05-01T03:23:37.969Z,7.50
2019-05-01T03:26:06.134Z,7.55
2019-05-01T03:28:33.615Z,7.45
2019-05-01T03:31:01.250Z,7.43
2019-05-01T03:33:28.857Z,7.36
2019-05-01T03:35:56.490Z,7.32
2019-05-01T03:38:24.858Z,7.35
2019-05-01T03:40:52.511Z,7.23
2019-05-01T03:43:20.678Z,7.15
2019-05-01T03:45:48.467Z,7.03
2019-05-01T03:48:16.745Z,7.10
2019-05-01T03:50:46.782Z,7.20
2019-05-01T03:53:13.591Z,7.11
2019-05-01T03:55:41.259Z,7.15
2019-05-01T03:58:08.936Z,7.17
2019-05-01T04:00:53.477Z,7.19
2019-05-01T04:03:26.262Z,7.18
2019-05-01T04:05:54.021Z,7.03
2019-05-01T04:08:21.683Z,6.98
2019-05-01T04:10:49.466Z,6.91
2019-05-01T04:13:17.532Z,6.79
2019-05-01T04:15:45.338Z,6.88
2019-05-01T04:18:12.958Z,6.98
2019-05-01T04:20:40.953Z,6.89
2019-05-01T04:23:13.876Z,6.87
2019-05-01T04:25:41.541Z,6.86
2019-05-01T04:28:27.752Z,6.82
2019-05-01T04:31:02.021Z,6.83
2019-05-01T04:33:31.095Z,6.85
2019-05-01T04:36:04.426Z,6.83
2019-05-01T04:38:32.491Z,6.84
2019-05-01T04:41:00.067Z,6.81
2019-05-01T04:43:35.062Z,6.86
2019-05-01T04:46:03.237Z,6.87
2019-05-01T04:48:31.386Z,6.91
2019-05-01T04:50:59.044Z,6.99
2019-05-01T04:53:26.512Z,7.08
2019-05-01T04:55:53.993Z,7.13
2019-05-01T04:58:23.522Z,7.20
2019-05-01T05:00:51.003Z,7.25
2019-05-01T05:03:20.780Z,7.28
2019-05-01T05:05:48.242Z,7.36
2019-05-01T05:08:27.691Z,7.43
2019-05-01T05:10:57.497Z,7.49
2019-05-01T05:13:30.531Z,7.66
2019-05-01T05:16:14.636Z,7.69
2019-05-01T05:18:42.704Z,7.74
2019-05-01T05:21:10.910Z,7.85
2019-05-01T05:23:38.923Z,7.86
2019-05-01T05:26:06.811Z,7.90
2019-05-01T05:28:34.769Z,8.05
2019-05-01T05:31:03.491Z,8.20
2019-05-01T05:33:34.140Z,8.29
2019-05-01T05:36:04.065Z,8.42
2019-05-01T05:38:43.339Z,8.52
2019-05-01T05:41:12.620Z,8.62
2019-05-01T05:43:40.485Z,8.71
2019-05-01T05:46:08.171Z,8.82
2019-05-01T05:48:35.641Z,8.91
2019-05-01T05:51:22.449Z,9.14
2019-05-01T05:53:54.557Z,9.23
2019-05-01T05:56:31.889Z,9.42
2019-05-01T05:59:07.766Z,9.60
2019-05-01T06:01:49.054Z,9.56
2019-05-01T06:04:44.137Z,9.83
2019-05-01T06:07:25.375Z,9.91
2019-05-01T06:10:05.567Z,10.19
2019-05-01T06:12:50.148Z,10.33
2019-05-01T06:15:41.187Z,10.52
2019-05-01T06:18:14.028Z,10.51
2019-05-01T06:20:57.212Z,10.63
2019-05-01T06:23:52.777Z,10.75
2019-05-01T06:26:32.015Z,10.89
2019-05-01T06:29:01.977Z,11.09
2019-05-01T06:31:30.361Z,11.22
2019-05-01T06:33:58.315Z,11.42
2019-05-01T06:36:25.851Z,11.52
2019-05-01T06:38:54.518Z,11.60
2019-05-01T06:41:28.616Z,11.53
2019-05-01T06:44:04.114Z,11.73
2019-05-01T06:46:48.400Z,11.92
2019-05-01T06:49:48.510Z,12.18
2019-05-01T06:52:20.500Z,12.37
2019-05-01T06:54:52.091Z,12.39
2019-05-01T06:57:18.429Z,12.68
2019-05-01T06:59:46.906Z,12.82
2019-05-01T07:02:16.050Z,12.85
2019-05-01T07:04:47.381Z,12.93
2019-05-01T07:07:25.051Z,12.88
2019-05-01T07:09:51.471Z,13.00
2019-05-01T07:12:23.796Z,13.23
2019-05-01T07:15:04.265Z,13.25
2019-05-01T07:17:31.819Z,13.45
2019-05-01T07:20:34.985Z,13.54
2019-05-01T07:23:03.062Z,13.58
2019-05-01T07:25:30.452Z,13.62
2019-05-01T07:28:03.233Z,13.73
2019-05-01T07:30:56.750Z,13.78
2019-05-01T07:33:24.740Z,13.74
2019-05-01T07:36:00.123Z,13.87
2019-05-01T07:38:28.130Z,13.78
2019-05-01T07:40:58.909Z,13.96
2019-05-01T07:44:03.164Z,14.06
2019-05-01T07:46:36.264Z,14.04
2019-05-01T07:49:04.578Z,14.28
2019-05-01T07:51:32.232Z,14.32
2019-05-01T07:54:04.056Z,14.47
2019-05-01T07:56:30.209Z,14.72
2019-05-01T07:58:58.204Z,14.85
2019-05-01T08:02:03.589Z,14.95
2019-05-01T08:04:38.030Z,14.99
2019-05-01T08:07:00.210Z,15.05
2019-05-01T08:09:27.582Z,15.30
2019-05-01T08:11:54.946Z,15.61
2019-05-01T08:14:22.119Z,15.78
2019-05-01T08:16:49.393Z,15.74
2019-05-01T08:19:39.473Z,15.81
2019-05-01T08:22:13.589Z,15.84
2019-05-01T08:24:41.053Z,15.91
2019-05-01T08:27:15.707Z,16.08
2019-05-01T08:30:17.477Z,16.20
2019-05-01T08:32:59.307Z,16.56
2019-05-01T08:35:31.773Z,16.78
2019-05-01T08:37:58.480Z,16.81
2019-05-01T08:40:27.745Z,17.01
2019-05-01T08:42:55.120Z,17.09
2019-05-01T08:45:35.913Z,17.02
2019-05-01T08:48:15.298Z,17.09
2019-05-01T08:50:42.592Z,17.22
2019-05-01T08:53:09.763Z,17.19
2019-05-01T08:55:39.954Z,17.15
2019-05-01T08:58:08.855Z,17.33
2019-05-01T09:00:39.002Z,17.31
2019-05-01T09:03:08.508Z,17.34
2019-05-01T09:05:34.207Z,17.37
2019-05-01T09:08:01.682Z,17.30
2019-05-01T09:10:29.081Z,17.32
2019-05-01T09:12:56.257Z,17.49
2019-05-01T09:15:23.509Z,17.32
2019-05-01T09:17:50.783Z,17.50
2019-05-01T09:20:18.169Z,17.58
2019-05-01T09:22:46.691Z,17.51
2019-05-01T09:25:17.063Z,17.61
2019-05-01T09:28:05.691Z,17.72
2019-05-01T09:30:48.952Z,17.74
2019-05-01T09:33:17.442Z,17.76
2019-05-01T09:35:45.666Z,17.97
2019-05-01T09:38:14.098Z,18.10
2019-05-01T09:40:42.481Z,18.24
2019-05-01T09:43:09.928Z,18.41
2019-05-01T09:45:37.377Z,18.40
2019-05-01T09:48:05.790Z,18.62
2019-05-01T09:50:35.337Z,18.65
2019-05-01T09:53:19.581Z,18.80
2019-05-01T09:55:53.524Z,18.79
2019-05-01T09:58:20.998Z,18.86
2019-05-01T10:00:52.649Z,18.84
2019-05-01T10:03:18.577Z,19.07
2019-05-01T10:05:45.917Z,19.17
2019-05-01T10:08:13.301Z,19.34
2019-05-01T10:10:40.681Z,19.35
2019-05-01T10:13:11.298Z,19.61
2019-05-01T10:15:38.681Z,19.55
2019-05-01T10:18:06.383Z,19.66
2019-05-01T10:20:33.935Z,19.88
2019-05-01T10:23:01.294Z,20.06
2019-05-01T10:25:28.481Z,20.36
2019-05-01T10:28:01.720Z,20.74
2019-05-01T10:30:43.721Z,21.21
2019-05-01T10:33:17.845Z,21.62
2019-05-01T10:36:18.865Z,21.88
2019-05-01T10:38:45.059Z,23.13
2019-05-01T10:41:12.423Z,23.81
2019-05-01T10:43:39.950Z,24.13
2019-05-01T10:46:07.505Z,24.75
2019-05-01T10:48:35.074Z,24.99
2019-05-01T10:51:02.473Z,25.24
2019-05-01T10:53:29.688Z,25.43
2019-05-01T10:55:57.053Z,26.33
2019-05-01T10:58:24.518Z,27.25
2019-05-01T11:00:57.503Z,27.71
2019-05-01T11:03:25.185Z,28.15
2019-05-01T11:05:56.125Z,28.58
2019-05-01T11:08:21.885Z,28.59
2019-05-01T11:10:49.112Z,28.98
2019-05-01T11:13:16.409Z,29.71
2019-05-01T11:15:43.968Z,30.07
2019-05-01T11:18:11.322Z,30.38
2019-05-01T11:20:38.554Z,30.04
2019-05-01T11:23:05.926Z,30.58
2019-05-01T11:25:33.838Z,30.71
2019-05-01T11:28:01.201Z,30.98
2019-05-01T11:30:28.394Z,31.52
2019-05-01T11:33:07.928Z,31.28
2019-05-01T11:35:53.734Z,31.56
2019-05-01T11:38:38.695Z,31.56
2019-05-01T11:41:10.499Z,31.63
2019-05-01T11:43:37.940Z,31.47
2019-05-01T11:46:05.394Z,31.55
2019-05-01T11:48:32.882Z,31.41
2019-05-01T11:51:00.231Z,31.72
2019-05-01T11:53:30.366Z,31.82
2019-05-01T11:55:57.665Z,31.71
2019-05-01T11:58:24.951Z,31.86
2019-05-01T12:00:54.127Z,31.84
2019-05-01T12:03:21.428Z,32.11
2019-05-01T12:05:48.762Z,31.92
2019-05-01T12:08:16.221Z,31.72
2019-05-01T12:10:44.041Z,31.41
2019-05-01T12:13:11.305Z,31.87
2019-05-01T12:15:38.659Z,31.37
2019-05-01T12:18:05.921Z,31.76
2019-05-01T12:20:33.172Z,31.62
2019-05-01T12:23:00.360Z,31.49
2019-05-01T12:25:28.619Z,31.59
2019-05-01T12:27:56.024Z,31.62
2019-05-01T12:30:23.394Z,31.33
2019-05-01T12:32:50.832Z,30.84
2019-05-01T12:35:18.105Z,31.04
2019-05-01T12:37:45.565Z,31.06
2019-05-01T12:40:17.768Z,31.00
2019-05-01T12:42:45.322Z,30.89
2019-05-01T12:45:14.318Z,30.95
2019-05-01T12:47:48.008Z,30.58
2019-05-01T12:50:16.274Z,30.14
2019-05-01T12:53:02.221Z,29.75
2019-05-01T12:55:49.275Z,29.40
2019-05-01T12:58:16.559Z,29.18
2019-05-01T13:00:49.173Z,29.27
2019-05-01T13:03:16.591Z,29.12
2019-05-01T13:05:44.076Z,29.32
2019-05-01T13:08:11.540Z,29.31
2019-05-01T13:10:38.789Z,29.44
2019-05-01T13:13:06.164Z,29.21
2019-05-01T13:15:33.653Z,29.04
2019-05-01T13:18:01.188Z,28.94
2019-05-01T13:20:28.489Z,28.87
2019-05-01T13:22:55.670Z,28.79
2019-05-01T13:25:32.949Z,28.59
2019-05-01T13:28:16.349Z,28.59
2019-05-01T13:30:54.463Z,28.62
2019-05-01T13:33:21.910Z,28.67
2019-05-01T13:35:49.179Z,28.65
2019-05-01T13:38:16.629Z,28.29
2019-05-01T13:40:43.885Z,28.43
2019-05-01T13:43:11.136Z,28.33
2019-05-01T13:45:38.301Z,28.32
2019-05-01T13:48:11.359Z,28.17
2019-05-01T13:50:38.644Z,27.36
2019-05-01T13:53:06.256Z,27.55
2019-05-01T13:55:33.685Z,27.63
2019-05-01T13:58:02.008Z,27.18
2019-05-01T14:00:29.606Z,27.21
2019-05-01T14:02:57.042Z,27.24
2019-05-01T14:05:24.423Z,27.21
2019-05-01T14:07:51.726Z,27.19
2019-05-01T14:10:19.481Z,26.85
2019-05-01T14:12:46.915Z,26.93
2019-05-01T14:15:14.393Z,27.07
2019-05-01T14:17:41.680Z,27.05
2019-05-01T14:20:32.972Z,26.82
2019-05-01T14:23:05.161Z,26.81
2019-05-01T14:25:51.416Z,26.88
2019-05-01T14:28:18.800Z,27.05
2019-05-01T14:30:45.962Z,27.02
2019-05-01T14:33:13.177Z,26.84
2019-05-01T14:35:42.887Z,26.84
2019-05-01T14:38:10.272Z,26.52
2019-05-01T14:40:40.045Z,26.53
2019-05-01T14:43:07.435Z,26.50
2019-05-01T14:45:36.713Z,26.48
2019-05-01T14:48:04.258Z,26.26
2019-05-01T14:50:31.633Z,26.06
2019-05-01T14:52:58.967Z,26.10
2019-05-01T14:55:26.450Z,25.99
2019-05-01T14:57:54.041Z,25.79
2019-05-01T15:00:21.728Z,25.75
2019-05-01T15:02:49.105Z,25.45
2019-05-01T15:05:16.614Z,25.46
2019-05-01T15:07:44.290Z,25.45
2019-05-01T15:10:12.109Z,25.18
2019-05-01T15:12:48.829Z,25.14
2019-05-01T15:15:36.054Z,24.88
2019-05-01T15:18:10.506Z,24.67
2019-05-01T15:20:37.911Z,24.78
2019-05-01T15:23:05.241Z,24.83
2019-05-01T15:25:35.570Z,24.82
2019-05-01T15:28:03.045Z,24.92
2019-05-01T15:30:30.560Z,24.75
2019-05-01T15:32:59.650Z,24.73
2019-05-01T15:35:28.449Z,24.77
2019-05-01T15:37:57.155Z,24.67
2019-05-01T15:40:30.957Z,24.62
2019-05-01T15:43:09.073Z,24.58
2019-05-01T15:45:36.248Z,24.59
2019-05-01T15:48:08.856Z,24.47
2019-05-01T15:50:36.551Z,24.43
2019-05-01T15:53:06.863Z,24.40
2019-05-01T15:55:37.047Z,24.28
2019-05-01T15:58:05.865Z,24.31
2019-05-01T16:00:42.303Z,24.26
2019-05-01T16:03:10.897Z,24.23
2019-05-01T16:05:41.610Z,23.96
2019-05-01T16:08:12.903Z,24.23
2019-05-01T16:10:54.086Z,24.18
2019-05-01T16:13:24.214Z,24.07
2019-05-01T16:15:59.811Z,23.88
2019-05-01T16:18:29.710Z,23.64
2019-05-01T16:20:57.451Z,23.43
2019-05-01T16:23:32.114Z,23.48
2019-05-01T16:26:14.981Z,23.31
2019-05-01T16:28:46.672Z,23.22
2019-05-01T16:31:13.914Z,23.05
2019-05-01T16:33:51.554Z,23.16
2019-05-01T16:36:32.779Z,23.09
2019-05-01T16:39:23.060Z,22.96
2019-05-01T16:41:53.159Z,22.95
2019-05-01T16:44:23.492Z,22.84
2019-05-01T16:46:52.547Z,22.89
2019-05-01T16:49:19.934Z,22.80
2019-05-01T16:51:47.988Z,22.74
2019-05-01T16:54:15.258Z,22.66
2019-05-01T16:56:43.042Z,22.56
2019-05-01T16:59:10.431Z,22.49
2019-05-01T17:01:57.452Z,22.61
2019-05-01T17:04:43.318Z,22.38
2019-05-01T17:07:24.446Z,22.40
2019-05-01T17:10:10.199Z,22.26
2019-05-01T17:12:45.391Z,22.25
2019-05-01T17:15:14.954Z,22.00
2019-05-01T17:17:50.843Z,21.84
2019-05-01T17:20:18.626Z,21.91
2019-05-01T17:22:46.323Z,21.85
2019-05-01T17:25:15.379Z,21.72
2019-05-01T17:27:42.895Z,21.46
2019-05-01T17:30:16.259Z,21.35
2019-05-01T17:32:44.280Z,21.52
2019-05-01T17:35:13.615Z,21.39
2019-05-01T17:37:43.985Z,21.44
2019-05-01T17:40:11.936Z,21.37
2019-05-01T17:42:39.511Z,21.30
2019-05-01T17:45:07.527Z,21.12
2019-05-01T17:47:35.873Z,21.21
2019-05-01T17:50:07.472Z,21.07
2019-05-01T17:52:35.433Z,21.01
2019-05-01T17:55:05.317Z,20.94
2019-05-01T17:57:33.909Z,20.83
2019-05-01T18:00:24.300Z,20.72
2019-05-01T18:02:59.169Z,20.71
2019-05-01T18:05:41.795Z,20.56
2019-05-01T18:08:09.773Z,20.39
2019-05-01T18:10:39.850Z,20.34
2019-05-01T18:13:08.924Z,20.29
2019-05-01T18:15:37.715Z,20.11
2019-05-01T18:18:05.360Z,20.12
2019-05-01T18:20:33.356Z,19.94
2019-05-01T18:23:42.854Z,19.81
2019-05-01T18:26:38.787Z,19.65
2019-05-01T18:29:13.672Z,19.48
2019-05-01T18:31:43.933Z,19.16
2019-05-01T18:34:12.021Z,19.22
2019-05-01T18:36:47.061Z,19.20
2019-05-01T18:39:25.812Z,19.17
2019-05-01T18:41:58.238Z,18.96
2019-05-01T18:44:26.036Z,18.89
2019-05-01T18:46:57.887Z,18.91
2019-05-01T18:49:35.177Z,18.74
2019-05-01T18:52:05.396Z,18.78
2019-05-01T18:54:35.019Z,18.68
2019-05-01T18:57:02.883Z,18.68
2019-05-01T18:59:31.062Z,18.50
2019-05-01T19:02:04.394Z,18.31
2019-05-01T19:04:32.866Z,18.23
2019-05-01T19:07:02.454Z,18.15
2019-05-01T19:09:32.739Z,18.07
2019-05-01T19:12:01.218Z,18.02
2019-05-01T19:14:32.188Z,17.85
2019-05-01T19:17:00.280Z,17.76
2019-05-01T19:19:28.063Z,17.71
2019-05-01T19:21:56.143Z,17.66
2019-05-01T19:24:26.238Z,17.57
2019-05-01T19:26:58.538Z,17.56
2019-05-01T19:29:33.858Z,17.52
2019-05-01T19:32:03.414Z,17.40
2019-05-01T19:34:31.606Z,17.30
2019-05-01T19:36:59.537Z,17.25
2019-05-01T19:39:27.417Z,17.13
2019-05-01T19:41:55.087Z,17.07
2019-05-01T19:44:23.219Z,16.91
2019-05-01T19:46:51.164Z,16.68
2019-05-01T19:49:19.113Z,16.51
2019-05-01T19:51:46.879Z,16.42
2019-05-01T19:54:14.824Z,16.34
2019-05-01T19:56:42.619Z,16.09
2019-05-01T19:59:10.392Z,16.00
2019-05-01T20:01:43.730Z,15.95
2019-05-01T20:04:08.462Z,15.87
2019-05-01T20:06:46.812Z,15.69
2019-05-01T20:09:17.393Z,15.46
2019-05-01T20:11:45.984Z,15.37
2019-05-01T20:14:14.103Z,15.34
2019-05-01T20:16:41.970Z,15.45
2019-05-01T20:19:12.000Z,15.60
2019-05-01T20:21:41.762Z,15.50
2019-05-01T20:24:12.391Z,15.44
2019-05-01T20:26:40.123Z,15.12
2019-05-01T20:29:10.026Z,15.03
2019-05-01T20:31:37.837Z,15.04
2019-05-01T20:34:05.686Z,15.06
2019-05-01T20:36:34.774Z,15.26
2019-05-01T20:39:05.503Z,15.20
2019-05-01T20:41:33.731Z,15.13
2019-05-01T20:44:05.151Z,15.01
2019-05-01T20:46:33.031Z,14.82
2019-05-01T20:49:06.597Z,14.70
2019-05-01T20:51:34.599Z,14.83
2019-05-01T20:54:07.169Z,14.91
2019-05-01T20:56:40.371Z,14.66
2019-05-01T20:59:07.936Z,14.42
2019-05-01T21:01:35.703Z,14.33
2019-05-01T21:04:17.573Z,14.11
2019-05-01T21:06:46.793Z,13.89
2019-05-01T21:09:19.996Z,13.77
2019-05-01T21:11:50.481Z,13.73
2019-05-01T21:14:22.688Z,13.71
2019-05-01T21:16:46.984Z,13.59
2019-05-01T21:19:14.432Z,13.59
2019-05-01T21:21:43.487Z,13.71
2019-05-01T21:24:11.250Z,13.71
2019-05-01T21:26:38.509Z,13.83
2019-05-01T21:29:05.917Z,13.49
2019-05-01T21:31:34.140Z,13.38
2019-05-01T21:34:01.618Z,13.34
2019-05-01T21:36:28.770Z,13.26
2019-05-01T21:38:56.109Z,13.18
2019-05-01T21:41:23.287Z,13.26
2019-05-01T21:43:50.463Z,13.58
2019-05-01T21:46:17.719Z,13.21
2019-05-01T21:48:45.029Z,13.48
2019-05-01T21:51:12.615Z,13.41
2019-05-01T21:53:42.720Z,13.30
2019-05-01T21:56:09.090Z,13.20
2019-05-01T21:58:36.251Z,13.13
2019-05-01T22:01:06.079Z,13.09
2019-05-01T22:03:33.535Z,13.22
2019-05-01T22:06:00.897Z,13.16
2019-05-01T22:08:28.346Z,13.00
2019-05-01T22:10:57.595Z,12.94
2019-05-01T22:13:25.546Z,12.86
2019-05-01T22:15:58.142Z,13.02
2019-05-01T22:18:45.441Z,12.85
2019-05-01T22:21:19.558Z,12.81
2019-05-01T22:24:16.685Z,12.91
2019-05-01T22:26:48.252Z,12.78
2019-05-01T22:29:17.418Z,12.81
2019-05-01T22:32:10.473Z,12.67
2019-05-01T22:34:50.985Z,12.72
2019-05-01T22:37:18.344Z,12.61
2019-05-01T22:39:49.365Z,12.61
2019-05-01T22:42:17.093Z,12.62
2019-05-01T22:44:44.525Z,12.63
2019-05-01T22:47:14.945Z,12.55
2019-05-01T22:49:41.061Z,12.61
2019-05-01T22:52:08.444Z,12.71
2019-05-01T22:54:35.693Z,12.57
2019-05-01T22:57:03.240Z,12.47
2019-05-01T22:59:30.594Z,12.40
2019-05-01T23:02:04.714Z,12.38
2019-05-01T23:04:32.001Z,12.34
2019-05-01T23:06:59.245Z,12.24
2019-05-01T23:09:32.820Z,12.24
2019-05-01T23:12:00.428Z,12.21
2019-05-01T23:14:28.702Z,12.17
2019-05-01T23:17:14.977Z,12.11
2019-05-01T23:19:42.347Z,12.04
2019-05-01T23:22:09.616Z,12.10
2019-05-01T23:24:36.874Z,12.07
2019-05-01T23:27:04.364Z,12.15
2019-05-01T23:29:31.549Z,12.13
2019-05-01T23:31:58.816Z,12.15
2019-05-01T23:34:27.784Z,12.09
2019-05-01T23:36:55.046Z,12.13
2019-05-01T23:39:22.693Z,12.14
2019-05-01T23:41:50.156Z,12.07
2019-05-01T23:44:17.428Z,12.14
2019-05-01T23:46:44.841Z,12.07
2019-05-01T23:49:11.978Z,12.14
2019-05-01T23:51:39.132Z,12.14
2019-05-01T23:54:07.583Z,12.10
2019-05-01T23:56:36.259Z,12.15
2019-05-01T23:59:04.125Z,12.15
